createdAt,value
2022-11-18T00:01:21.783Z,10.90
2022-11-18T00:03:50.648Z,11.00
2022-11-18T00:06:21.678Z,11.10
2022-11-18T00:08:51.730Z,11.10
2022-11-18T00:11:35.548Z,11.10
2022-11-18T00:14:23.521Z,11.00
2022-11-18T00:16:54.679Z,10.90
2022-11-18T00:19:24.419Z,10.90
2022-11-18T00:21:52.692Z,10.90
2022-11-18T00:24:22.693Z,10.80
2022-11-18T00:26:51.011Z,10.80
2022-11-18T00:29:19.818Z,10.80
2022-11-18T00:31:48.381Z,10.80
2022-11-18T00:34:18.671Z,10.80
2022-11-18T00:36:48.292Z,10.80
2022-11-18T00:39:18.934Z,10.70
2022-11-18T00:42:06.868Z,10.80
2022-11-18T00:44:35.354Z,10.70
2022-11-18T00:47:03.811Z,10.70
2022-11-18T00:49:32.243Z,10.60
2022-11-18T00:52:01.271Z,10.70
2022-11-18T00:54:29.496Z,10.60
2022-11-18T00:56:59.249Z,10.60
2022-11-18T00:59:27.697Z,10.60
2022-11-18T01:01:58.175Z,10.60
2022-11-18T01:04:26.257Z,10.50
2022-11-18T01:06:54.561Z,10.50
2022-11-18T01:09:22.740Z,10.50
2022-11-18T01:12:08.493Z,10.50
2022-11-18T01:14:38.067Z,10.50
2022-11-18T01:17:06.346Z,10.40
2022-11-18T01:19:34.599Z,10.40
2022-11-18T01:22:03.480Z,10.40
2022-11-18T01:24:32.208Z,10.50
2022-11-18T01:27:00.572Z,10.50
2022-11-18T01:29:28.783Z,10.50
2022-11-18T01:34:46.648Z,10.50
2022-11-18T01:37:14.789Z,10.40
2022-11-18T01:39:42.921Z,10.40
2022-11-18T01:42:15.991Z,10.40
2022-11-18T01:45:21.034Z,10.40
2022-11-18T01:47:56.982Z,10.30
2022-11-18T01:50:25.981Z,10.30
2022-11-18T01:52:55.915Z,10.40
2022-11-18T01:55:28.029Z,10.30
2022-11-18T01:58:03.316Z,10.30
2022-11-18T02:00:31.556Z,10.30
2022-11-18T02:03:03.268Z,10.30
2022-11-18T02:05:33.785Z,10.20
2022-11-18T02:08:03.293Z,10.20
2022-11-18T02:10:31.486Z,10.10
2022-11-18T02:13:00.264Z,10.10
2022-11-18T02:15:47.020Z,10.10
2022-11-18T02:18:27.068Z,10.10
2022-11-18T02:21:02.244Z,10.10
2022-11-18T02:24:11.394Z,10.10
2022-11-18T02:27:06.502Z,9.90
2022-11-18T02:29:43.782Z,9.80
2022-11-18T02:32:17.702Z,9.90
2022-11-18T02:34:51.711Z,9.80
2022-11-18T02:37:25.825Z,9.80
2022-11-18T02:39:59.375Z,9.70
2022-11-18T02:42:28.734Z,9.80
2022-11-18T02:45:01.348Z,9.70
2022-11-18T02:47:32.847Z,9.70
2022-11-18T02:50:04.676Z,9.70
2022-11-18T02:52:35.106Z,9.70
2022-11-18T02:55:07.300Z,9.70
2022-11-18T02:57:36.672Z,9.80
2022-11-18T03:00:07.830Z,9.80
2022-11-18T03:02:43.077Z,9.80
2022-11-18T03:05:18.425Z,9.80
2022-11-18T03:07:51.739Z,9.80
2022-11-18T03:10:22.972Z,9.70
2022-11-18T03:13:00.953Z,9.70
2022-11-18T03:15:37.759Z,9.70
2022-11-18T03:18:17.529Z,9.70
2022-11-18T03:20:51.692Z,9.80
2022-11-18T03:23:28.729Z,9.80
2022-11-18T03:26:02.279Z,9.80
2022-11-18T03:28:37.184Z,9.80
2022-11-18T03:31:10.723Z,9.80
2022-11-18T03:33:43.472Z,9.80
2022-11-18T03:36:14.143Z,9.80
2022-11-18T03:38:52.451Z,9.80
2022-11-18T03:41:23.024Z,9.80
2022-11-18T03:43:58.060Z,9.80
2022-11-18T03:46:33.837Z,9.80
2022-11-18T03:49:02.827Z,9.80
2022-11-18T03:51:38.020Z,9.80
2022-11-18T03:54:12.485Z,9.80
2022-11-18T03:56:43.617Z,9.80
2022-11-18T03:59:17.801Z,9.80
2022-11-18T04:01:53.054Z,9.60
2022-11-18T04:04:21.862Z,9.70
2022-11-18T04:06:53.811Z,9.60
2022-11-18T04:09:25.884Z,9.50
2022-11-18T04:12:05.774Z,9.50
2022-11-18T04:14:35.837Z,9.50
2022-11-18T04:17:10.389Z,9.50
2022-11-18T04:19:38.819Z,9.50
2022-11-18T04:22:07.994Z,9.50
2022-11-18T04:24:36.224Z,9.50
2022-11-18T04:27:05.355Z,9.40
2022-11-18T04:29:34.340Z,9.40
2022-11-18T04:32:03.034Z,9.50
2022-11-18T04:34:32.884Z,9.50
2022-11-18T04:37:01.052Z,9.50
2022-11-18T04:39:29.282Z,9.50
2022-11-18T04:41:57.455Z,9.50
2022-11-18T04:44:26.929Z,9.60
2022-11-18T04:46:56.172Z,9.60
2022-11-18T04:49:25.249Z,9.60
2022-11-18T04:51:55.544Z,9.60
2022-11-18T04:54:24.571Z,9.50
2022-11-18T04:56:53.139Z,9.50
2022-11-18T04:59:22.694Z,9.40
2022-11-18T05:01:51.445Z,9.50
2022-11-18T05:04:22.162Z,9.50
2022-11-18T05:06:50.501Z,9.50
2022-11-18T05:09:21.037Z,9.50
2022-11-18T05:12:07.168Z,9.50
2022-11-18T05:14:35.425Z,9.40
2022-11-18T05:17:05.110Z,9.40
2022-11-18T05:19:33.381Z,9.40
2022-11-18T05:22:01.666Z,9.40
2022-11-18T05:24:31.113Z,9.30
2022-11-18T05:26:59.299Z,9.40
2022-11-18T05:29:27.473Z,9.40
2022-11-18T05:31:55.646Z,9.40
2022-11-18T05:34:23.898Z,9.40
2022-11-18T05:36:52.049Z,9.50
2022-11-18T05:39:20.492Z,9.40
2022-11-18T05:42:07.713Z,9.30
2022-11-18T05:44:35.861Z,9.40
2022-11-18T05:47:03.991Z,9.40
2022-11-18T05:49:32.154Z,9.40
2022-11-18T05:52:00.254Z,9.40
2022-11-18T05:54:29.267Z,9.40
2022-11-18T05:56:58.763Z,9.40
2022-11-18T05:59:26.951Z,9.40
2022-11-18T06:01:59.139Z,9.30
2022-11-18T06:04:31.084Z,9.30
2022-11-18T06:07:02.215Z,9.30
2022-11-18T06:09:39.801Z,9.40
2022-11-18T06:12:10.545Z,9.40
2022-11-18T06:14:41.344Z,9.50
2022-11-18T06:17:13.694Z,9.50
2022-11-18T06:19:42.029Z,9.50
2022-11-18T06:22:10.690Z,9.50
2022-11-18T06:24:39.462Z,9.50
2022-11-18T06:27:09.244Z,9.50
2022-11-18T06:29:37.420Z,9.60
2022-11-18T06:32:05.677Z,9.60
2022-11-18T06:34:39.819Z,9.60
2022-11-18T06:37:16.569Z,9.60
2022-11-18T06:39:45.117Z,9.60
2022-11-18T06:42:35.418Z,9.60
2022-11-18T06:45:02.821Z,9.60
2022-11-18T06:47:31.095Z,9.60
2022-11-18T06:49:59.211Z,9.60
2022-11-18T06:52:27.505Z,9.70
2022-11-18T06:54:55.636Z,9.70
2022-11-18T06:57:25.174Z,9.60
2022-11-18T06:59:56.544Z,9.70
2022-11-18T07:02:28.944Z,9.70
2022-11-18T07:04:57.078Z,9.60
2022-11-18T07:07:25.374Z,9.70
2022-11-18T07:09:53.664Z,9.70
2022-11-18T07:12:21.983Z,9.80
2022-11-18T07:14:51.559Z,9.70
2022-11-18T07:17:19.732Z,9.60
2022-11-18T07:19:47.859Z,9.60
2022-11-18T07:22:15.998Z,9.70
2022-11-18T07:24:44.073Z,9.60
2022-11-18T07:27:12.249Z,9.60
2022-11-18T07:29:40.426Z,9.60
2022-11-18T07:32:10.031Z,9.60
2022-11-18T07:34:38.149Z,9.50
2022-11-18T07:37:09.078Z,9.50
2022-11-18T07:39:41.728Z,9.50
2022-11-18T07:42:10.716Z,9.50
2022-11-18T07:44:38.967Z,9.50
2022-11-18T07:47:07.396Z,9.60
2022-11-18T07:49:37.079Z,9.60
2022-11-18T07:52:05.498Z,9.60
2022-11-18T07:54:33.634Z,9.60
2022-11-18T07:57:01.807Z,9.60
2022-11-18T07:59:32.147Z,9.70
2022-11-18T08:02:00.522Z,9.60
2022-11-18T08:04:30.906Z,9.70
2022-11-18T08:07:00.961Z,9.80
2022-11-18T08:09:29.184Z,9.70
2022-11-18T08:11:57.391Z,9.70
2022-11-18T08:14:28.870Z,9.70
2022-11-18T08:17:00.266Z,9.60
2022-11-18T08:19:30.239Z,9.80
2022-11-18T08:21:58.409Z,9.80
2022-11-18T08:24:28.016Z,9.80
2022-11-18T08:26:58.366Z,9.80
2022-11-18T08:29:28.764Z,9.70
2022-11-18T08:32:00.063Z,9.80
2022-11-18T08:34:33.979Z,9.70
2022-11-18T08:37:05.181Z,9.70
2022-11-18T08:39:34.699Z,9.70
2022-11-18T08:42:05.123Z,9.80
2022-11-18T08:44:34.661Z,9.90
2022-11-18T08:47:03.191Z,9.90
2022-11-18T08:49:32.668Z,9.90
2022-11-18T08:52:02.722Z,9.90
2022-11-18T08:54:31.699Z,9.90
2022-11-18T08:57:01.634Z,10.10
2022-11-18T08:59:33.388Z,10.20
2022-11-18T09:02:01.590Z,10.20
2022-11-18T09:04:29.993Z,10.10
2022-11-18T09:07:00.892Z,10.10
2022-11-18T09:09:29.191Z,10.10
2022-11-18T09:11:57.367Z,10.20
2022-11-18T09:17:15.396Z,10.20
2022-11-18T09:19:48.001Z,10.30
2022-11-18T09:22:16.515Z,10.30
2022-11-18T09:24:47.433Z,10.30
2022-11-18T09:27:17.531Z,10.20
2022-11-18T09:29:49.394Z,10.20
2022-11-18T09:32:20.085Z,10.30
2022-11-18T09:34:48.335Z,10.30
2022-11-18T09:37:16.498Z,10.20
2022-11-18T09:39:47.819Z,10.20
2022-11-18T09:42:37.434Z,10.20
2022-11-18T09:45:23.994Z,10.00
2022-11-18T09:47:56.361Z,9.90
2022-11-18T09:53:28.139Z,10.00
2022-11-18T09:55:58.006Z,10.00
2022-11-18T09:58:34.968Z,10.00
2022-11-18T10:01:11.128Z,10.00
2022-11-18T10:03:40.463Z,9.90
2022-11-18T10:06:23.763Z,10.00
2022-11-18T10:09:07.821Z,10.20
2022-11-18T10:11:46.270Z,10.20
2022-11-18T10:14:31.728Z,10.30
2022-11-18T10:17:11.284Z,10.30
2022-11-18T10:19:45.307Z,10.30
2022-11-18T10:22:24.699Z,10.10
2022-11-18T10:24:57.897Z,10.20
2022-11-18T10:27:34.449Z,10.40
2022-11-18T10:30:02.957Z,10.40
2022-11-18T10:32:32.693Z,10.60
2022-11-18T10:35:03.928Z,10.80
2022-11-18T10:38:06.277Z,10.80
2022-11-18T10:40:29.750Z,10.70
2022-11-18T10:43:00.335Z,10.80
2022-11-18T10:45:31.518Z,10.70
2022-11-18T10:48:09.084Z,10.80
2022-11-18T10:50:39.078Z,10.80
2022-11-18T10:53:08.615Z,10.80
2022-11-18T10:55:36.787Z,10.80
2022-11-18T10:58:11.403Z,10.80
2022-11-18T11:00:45.526Z,10.70
2022-11-18T11:03:34.587Z,10.60
2022-11-18T11:06:42.850Z,10.60
2022-11-18T11:09:27.356Z,10.60
2022-11-18T11:12:03.305Z,10.80
2022-11-18T11:14:42.186Z,10.80
2022-11-18T11:17:16.415Z,10.80
2022-11-18T11:20:07.505Z,10.80
2022-11-18T11:22:36.774Z,10.90
2022-11-18T11:25:14.163Z,11.10
2022-11-18T11:30:47.907Z,11.30
2022-11-18T11:33:34.250Z,11.30
2022-11-18T11:36:17.423Z,11.40
2022-11-18T11:39:04.264Z,11.20
2022-11-18T11:41:44.778Z,11.20
2022-11-18T11:44:42.298Z,10.90
2022-11-18T11:47:45.360Z,10.70
2022-11-18T11:50:29.568Z,10.80
2022-11-18T11:53:20.175Z,10.80
2022-11-18T11:56:10.653Z,10.90
2022-11-18T11:59:20.309Z,10.80
2022-11-18T12:02:23.472Z,10.80
2022-11-18T12:05:08.227Z,10.70
2022-11-18T12:07:46.217Z,10.80
2022-11-18T12:10:34.023Z,10.80
2022-11-18T12:13:22.387Z,10.90
2022-11-18T12:18:55.623Z,10.80
2022-11-18T12:21:55.457Z,10.70
2022-11-18T12:24:39.706Z,10.80
2022-11-18T12:27:53.771Z,10.80
2022-11-18T12:33:19.462Z,11.00
2022-11-18T12:35:53.387Z,10.90
2022-11-18T12:38:34.617Z,10.80
2022-11-18T12:41:24.650Z,10.70
2022-11-18T12:44:07.180Z,10.70
2022-11-18T12:46:55.897Z,10.60
2022-11-18T12:50:06.880Z,10.70
2022-11-18T12:52:49.978Z,10.80
2022-11-18T12:55:34.292Z,10.70
2022-11-18T12:58:05.493Z,10.50
2022-11-18T13:01:04.240Z,10.50
2022-11-18T13:03:38.828Z,10.30
2022-11-18T13:06:27.500Z,10.30
2022-11-18T13:09:13.276Z,10.30
2022-11-18T13:11:47.558Z,10.30
2022-11-18T13:14:38.262Z,10.40
2022-11-18T13:17:45.042Z,10.60
2022-11-18T13:20:32.645Z,10.70
2022-11-18T13:23:20.334Z,10.80
2022-11-18T13:25:51.450Z,10.80
2022-11-18T13:28:30.343Z,10.80
2022-11-18T13:31:15.599Z,10.70
2022-11-18T13:33:48.291Z,10.90
2022-11-18T13:36:24.536Z,10.90
2022-11-18T13:39:03.290Z,10.90
2022-11-18T13:41:34.508Z,10.80
2022-11-18T13:44:20.699Z,10.80
2022-11-18T13:46:57.181Z,10.80
2022-11-18T13:49:41.815Z,10.90
2022-11-18T13:52:24.248Z,10.80
2022-11-18T13:55:04.423Z,10.70
2022-11-18T13:57:33.287Z,10.80
2022-11-18T14:00:07.066Z,10.70
2022-11-18T14:02:46.866Z,10.60
2022-11-18T14:05:25.513Z,10.50
2022-11-18T14:08:28.586Z,10.40
2022-11-18T14:10:57.339Z,10.40
2022-11-18T14:13:35.770Z,10.40
2022-11-18T14:16:34.722Z,10.30
2022-11-18T14:19:15.302Z,10.40
2022-11-18T14:21:53.687Z,10.40
2022-11-18T14:24:42.754Z,10.30
2022-11-18T14:27:42.866Z,10.30
2022-11-18T14:33:34.890Z,10.20
2022-11-18T14:36:12.058Z,10.20
2022-11-18T14:39:04.387Z,10.20
2022-11-18T14:41:56.970Z,10.10
2022-11-18T14:47:26.843Z,10.10
2022-11-18T14:49:55.276Z,10.00
2022-11-18T14:52:24.176Z,9.90
2022-11-18T14:54:52.847Z,9.90
2022-11-18T14:57:22.341Z,10.00
2022-11-18T14:59:50.559Z,10.00
2022-11-18T15:02:19.616Z,9.90
2022-11-18T15:04:57.268Z,9.90
2022-11-18T15:07:25.446Z,9.90
2022-11-18T15:09:53.779Z,10.00
2022-11-18T15:12:23.306Z,9.90
2022-11-18T15:14:58.393Z,9.80
2022-11-18T15:17:26.723Z,9.70
2022-11-18T15:20:00.141Z,9.60
2022-11-18T15:22:31.167Z,9.50
2022-11-18T15:24:59.521Z,9.60
2022-11-18T15:27:29.114Z,9.50
2022-11-18T15:30:01.526Z,9.50
2022-11-18T15:32:30.170Z,9.40
2022-11-18T15:34:58.447Z,9.50
2022-11-18T15:37:26.574Z,9.50
2022-11-18T15:39:54.760Z,9.50
2022-11-18T15:42:23.616Z,9.50
2022-11-18T15:44:53.343Z,9.50
2022-11-18T15:47:21.563Z,9.50
2022-11-18T15:49:49.711Z,9.50
2022-11-18T15:52:19.047Z,9.50
2022-11-18T15:54:47.313Z,9.50
2022-11-18T15:57:15.444Z,9.40
2022-11-18T15:59:43.733Z,9.50
2022-11-18T16:02:13.401Z,9.50
2022-11-18T16:04:41.666Z,9.50
2022-11-18T16:07:21.774Z,9.50
2022-11-18T16:10:07.381Z,9.50
2022-11-18T16:12:50.481Z,9.50
2022-11-18T16:15:36.600Z,9.50
2022-11-18T16:18:06.849Z,9.50
2022-11-18T16:20:35.318Z,9.50
2022-11-18T16:23:03.564Z,9.60
2022-11-18T16:25:31.778Z,9.50
2022-11-18T16:28:06.729Z,9.50
2022-11-18T16:30:56.726Z,9.60
2022-11-18T16:33:26.273Z,9.50
2022-11-18T16:35:54.451Z,9.50
2022-11-18T16:38:24.643Z,9.50
2022-11-18T16:40:56.763Z,9.50
2022-11-18T16:43:25.275Z,9.50
2022-11-18T16:45:53.903Z,9.50
2022-11-18T16:48:23.021Z,9.40
2022-11-18T16:51:19.337Z,9.50
2022-11-18T16:53:52.700Z,9.60
2022-11-18T16:56:21.211Z,9.70
2022-11-18T16:58:49.474Z,9.60
2022-11-18T17:01:22.096Z,9.60
2022-11-18T17:03:53.418Z,9.60
2022-11-18T17:06:24.573Z,9.60
2022-11-18T17:08:53.140Z,9.60
2022-11-18T17:11:21.627Z,9.60
2022-11-18T17:13:53.345Z,9.60
2022-11-18T17:16:25.113Z,9.60
2022-11-18T17:18:56.955Z,9.60
2022-11-18T17:21:27.547Z,9.60
2022-11-18T17:23:55.993Z,9.50
2022-11-18T17:26:26.158Z,9.50
2022-11-18T17:28:54.349Z,9.40
2022-11-18T17:38:09.040Z,9.60
2022-11-18T17:40:37.262Z,9.60
2022-11-18T17:43:05.566Z,9.60
2022-11-18T17:45:33.806Z,9.60
2022-11-18T17:48:01.977Z,9.60
2022-11-18T17:50:30.268Z,9.40
2022-11-18T17:52:58.450Z,9.20
2022-11-18T17:55:27.973Z,9.20
2022-11-18T17:57:56.106Z,9.20
2022-11-18T18:00:24.443Z,9.00
2022-11-18T18:02:52.560Z,9.00
2022-11-18T18:05:21.107Z,8.90
2022-11-18T18:07:51.207Z,8.90
2022-11-18T18:10:22.560Z,9.00
2022-11-18T18:13:14.520Z,9.00
2022-11-18T18:15:46.281Z,8.90
2022-11-18T18:18:19.962Z,8.90
2022-11-18T18:21:12.525Z,9.00
2022-11-18T18:24:06.683Z,8.90
2022-11-18T18:26:41.190Z,8.90
2022-11-18T18:29:20.165Z,8.90
2022-11-18T18:31:50.522Z,8.80
2022-11-18T18:34:19.466Z,8.90
2022-11-18T18:36:49.450Z,8.90
2022-11-18T18:39:20.001Z,8.90
2022-11-18T18:41:49.167Z,9.00
2022-11-18T18:44:23.704Z,8.90
2022-11-18T18:46:53.733Z,8.90
2022-11-18T18:49:26.295Z,8.80
2022-11-18T18:52:00.215Z,8.80
2022-11-18T18:54:31.151Z,8.80
2022-11-18T18:56:59.510Z,8.80
2022-11-18T18:59:41.640Z,8.80
2022-11-18T19:02:13.812Z,8.80
2022-11-18T19:04:45.464Z,8.80
2022-11-18T19:07:17.863Z,8.80
2022-11-18T19:09:46.169Z,8.70
2022-11-18T19:12:31.759Z,8.70
2022-11-18T19:15:04.143Z,8.80
2022-11-18T19:17:35.340Z,8.80
2022-11-18T19:23:10.297Z,8.80
2022-11-18T19:25:39.373Z,8.60
2022-11-18T19:28:12.201Z,8.60
2022-11-18T19:30:44.226Z,8.70
2022-11-18T19:33:13.556Z,8.70
2022-11-18T19:35:43.236Z,8.80
2022-11-18T19:38:13.898Z,8.70
2022-11-18T19:40:54.763Z,8.60
2022-11-18T19:43:27.377Z,8.50
2022-11-18T19:45:59.917Z,8.60
2022-11-18T19:48:34.922Z,8.70
2022-11-18T19:51:21.906Z,8.70
2022-11-18T19:53:54.636Z,8.70
2022-11-18T19:56:36.130Z,8.60
2022-11-18T19:59:13.719Z,8.60
2022-11-18T20:01:46.057Z,8.60
2022-11-18T20:04:16.063Z,8.60
2022-11-18T20:06:46.681Z,8.70
2022-11-18T20:09:18.553Z,8.70
2022-11-18T20:11:46.787Z,8.70
2022-11-18T20:14:16.237Z,8.70
2022-11-18T20:16:53.041Z,8.70
2022-11-18T20:19:22.727Z,8.70
2022-11-18T20:21:53.279Z,8.70
2022-11-18T20:24:25.219Z,8.70
2022-11-18T20:26:57.244Z,8.60
2022-11-18T20:29:25.521Z,8.50
2022-11-18T20:31:57.555Z,8.50
2022-11-18T20:34:26.232Z,8.50
2022-11-18T20:39:43.771Z,8.60
2022-11-18T20:42:34.668Z,8.60
2022-11-18T20:45:05.670Z,8.60
2022-11-18T20:47:35.161Z,8.50
2022-11-18T20:50:03.395Z,8.50
2022-11-18T20:52:36.653Z,8.50
2022-11-18T20:55:07.518Z,8.60
2022-11-18T20:57:50.555Z,8.50
2022-11-18T21:00:32.059Z,8.60
2022-11-18T21:03:03.937Z,8.50
2022-11-18T21:08:17.485Z,8.60
2022-11-18T21:10:51.413Z,8.60
2022-11-18T21:13:36.837Z,8.60
2022-11-18T21:16:10.670Z,8.60
2022-11-18T21:18:42.193Z,8.60
2022-11-18T21:21:28.149Z,8.60
2022-11-18T21:24:01.628Z,8.50
2022-11-18T21:26:37.436Z,8.50
2022-11-18T21:29:11.550Z,8.40
2022-11-18T21:31:41.623Z,8.40
2022-11-18T21:34:17.820Z,8.40
2022-11-18T21:36:50.337Z,8.40
2022-11-18T21:39:24.289Z,8.30
2022-11-18T21:41:56.830Z,8.30
2022-11-18T21:44:28.154Z,8.30
2022-11-18T21:46:59.177Z,8.30
2022-11-18T21:49:36.787Z,8.30
2022-11-18T21:52:08.025Z,8.30
2022-11-18T21:54:41.036Z,8.30
2022-11-18T21:57:12.944Z,8.30
2022-11-18T21:59:42.672Z,8.30
2022-11-18T22:02:21.722Z,8.30
2022-11-18T22:04:58.802Z,8.30
2022-11-18T22:07:28.280Z,8.30
2022-11-18T22:10:00.304Z,8.30
2022-11-18T22:12:28.626Z,8.30
2022-11-18T22:14:56.913Z,8.40
2022-11-18T22:17:27.516Z,8.40
2022-11-18T22:19:58.902Z,8.30
2022-11-18T22:22:29.445Z,8.20
2022-11-18T22:25:00.831Z,8.20
2022-11-18T22:27:38.471Z,7.90
2022-11-18T22:30:07.993Z,7.90
2022-11-18T22:32:39.177Z,8.00
2022-11-18T22:35:12.643Z,8.00
2022-11-18T22:37:44.027Z,8.00
2022-11-18T22:40:21.897Z,8.00
2022-11-18T22:42:50.538Z,7.90
2022-11-18T22:45:19.074Z,7.90
2022-11-18T22:47:49.819Z,7.90
2022-11-18T22:50:19.781Z,7.90
2022-11-18T22:52:49.569Z,7.90
2022-11-18T22:55:26.482Z,7.90
2022-11-18T22:57:54.922Z,7.90
2022-11-18T23:00:27.466Z,7.90
2022-11-18T23:02:55.783Z,8.00
2022-11-18T23:05:32.922Z,7.90
2022-11-18T23:08:05.552Z,7.90
2022-11-18T23:10:37.338Z,8.00
2022-11-18T23:13:26.015Z,8.00
2022-11-18T23:16:00.099Z,8.10
2022-11-18T23:18:30.233Z,8.00
2022-11-18T23:21:04.999Z,8.00
2022-11-18T23:23:36.721Z,7.90
2022-11-18T23:26:09.292Z,7.90
2022-11-18T23:28:45.863Z,7.90
2022-11-18T23:31:26.497Z,7.90
2022-11-18T23:34:01.231Z,7.90
2022-11-18T23:36:32.837Z,7.80
2022-11-18T23:39:01.737Z,7.80
2022-11-18T23:41:32.536Z,7.70
2022-11-18T23:44:04.295Z,7.70
2022-11-18T23:46:33.846Z,7.80
2022-11-18T23:49:03.698Z,7.80
2022-11-18T23:51:35.274Z,7.80
2022-11-18T23:54:04.312Z,7.90
2022-11-18T23:56:38.081Z,7.90
2022-11-18T23:59:08.215Z,8.00
